sensor_id;sensor_type;location;lat;lon;timestamp;pressure;altitude;pressure_sealevel;temperature;humidity
44131;BME280;29792;48.726;9.248;2023-04-23T00:00:03;96280.56;;;13.97;78.38
44131;BME280;29792;48.726;9.248;2023-04-23T00:02:31;96277.19;;;13.97;77.91
44131;BME280;29792;48.726;9.248;2023-04-23T00:05:01;96282.31;;;13.97;78.45
44131;BME280;29792;48.726;9.248;2023-04-23T00:07:32;96278.13;;;13.96;78.31
44131;BME280;29792;48.726;9.248;2023-04-23T00:09:58;96280.09;;;13.94;78.62
44131;BME280;29792;48.726;9.248;2023-04-23T00:12:24;96279.28;;;13.93;79.14
44131;BME280;29792;48.726;9.248;2023-04-23T00:14:50;96279.09;;;13.95;79.14
44131;BME280;29792;48.726;9.248;2023-04-23T00:17:15;96278.31;;;13.94;79.56
44131;BME280;29792;48.726;9.248;2023-04-23T00:19:41;96272.38;;;13.94;79.04
44131;BME280;29792;48.726;9.248;2023-04-23T00:22:06;96269.00;;;13.93;79.00
44131;BME280;29792;48.726;9.248;2023-04-23T00:24:31;96273.94;;;13.95;79.46
44131;BME280;29792;48.726;9.248;2023-04-23T00:27:00;96275.09;;;13.92;79.31
44131;BME280;29792;48.726;9.248;2023-04-23T00:29:25;96278.78;;;13.90;79.84
44131;BME280;29792;48.726;9.248;2023-04-23T00:31:50;96277.34;;;13.87;80.26
44131;BME280;29792;48.726;9.248;2023-04-23T00:34:16;96278.47;;;13.85;80.13
44131;BME280;29792;48.726;9.248;2023-04-23T00:36:41;96285.56;;;13.83;80.74
44131;BME280;29792;48.726;9.248;2023-04-23T00:39:06;96283.13;;;13.81;80.49
44131;BME280;29792;48.726;9.248;2023-04-23T00:41:33;96281.06;;;13.77;81.13
44131;BME280;29792;48.726;9.248;2023-04-23T00:43:58;96289.09;;;13.73;81.57
44131;BME280;29792;48.726;9.248;2023-04-23T00:46:24;96283.28;;;13.71;82.23
44131;BME280;29792;48.726;9.248;2023-04-23T00:48:51;96287.16;;;13.67;82.43
44131;BME280;29792;48.726;9.248;2023-04-23T00:51:16;96291.00;;;13.63;82.50
44131;BME280;29792;48.726;9.248;2023-04-23T00:53:42;96292.94;;;13.61;83.74
44131;BME280;29792;48.726;9.248;2023-04-23T00:56:07;96299.22;;;13.59;84.65
44131;BME280;29792;48.726;9.248;2023-04-23T00:58:33;96293.91;;;13.52;85.61
44131;BME280;29792;48.726;9.248;2023-04-23T01:00:59;96298.06;;;13.45;86.98
44131;BME280;29792;48.726;9.248;2023-04-23T01:03:26;96305.44;;;13.40;88.50
44131;BME280;29792;48.726;9.248;2023-04-23T01:05:53;96308.00;;;13.32;89.31
44131;BME280;29792;48.726;9.248;2023-04-23T01:08:20;96308.63;;;13.26;90.82
44131;BME280;29792;48.726;9.248;2023-04-23T01:10:47;96306.03;;;13.18;91.61
44131;BME280;29792;48.726;9.248;2023-04-23T01:13:12;96307.28;;;13.14;92.81
44131;BME280;29792;48.726;9.248;2023-04-23T01:15:38;96307.88;;;13.08;94.92
44131;BME280;29792;48.726;9.248;2023-04-23T01:18:03;96309.47;;;13.00;96.41
44131;BME280;29792;48.726;9.248;2023-04-23T01:20:31;96306.06;;;12.92;97.89
44131;BME280;29792;48.726;9.248;2023-04-23T01:22:57;96313.44;;;12.87;99.28
44131;BME280;29792;48.726;9.248;2023-04-23T01:25:23;96309.25;;;12.86;99.48
44131;BME280;29792;48.726;9.248;2023-04-23T01:27:48;96313.59;;;12.85;100.00
44131;BME280;29792;48.726;9.248;2023-04-23T01:30:14;96312.63;;;12.86;100.00
44131;BME280;29792;48.726;9.248;2023-04-23T01:32:40;96318.06;;;12.83;100.00
44131;BME280;29792;48.726;9.248;2023-04-23T01:35:07;96320.31;;;12.78;100.00
44131;BME280;29792;48.726;9.248;2023-04-23T01:37:33;96314.66;;;12.75;100.00
44131;BME280;29792;48.726;9.248;2023-04-23T01:39:59;96316.59;;;12.73;100.00
44131;BME280;29792;48.726;9.248;2023-04-23T01:42:25;96317.56;;;12.72;100.00
44131;BME280;29792;48.726;9.248;2023-04-23T01:44:50;96316.09;;;12.69;100.00
44131;BME280;29792;48.726;9.248;2023-04-23T01:47:18;96316.88;;;12.70;100.00
44131;BME280;29792;48.726;9.248;2023-04-23T01:49:43;96316.75;;;12.71;100.00
44131;BME280;29792;48.726;9.248;2023-04-23T01:52:09;96322.84;;;12.70;100.00
44131;BME280;29792;48.726;9.248;2023-04-23T01:54:34;96325.25;;;12.72;100.00
44131;BME280;29792;48.726;9.248;2023-04-23T01:56:59;96334.59;;;12.73;100.00
44131;BME280;29792;48.726;9.248;2023-04-23T01:59:25;96328.47;;;12.74;100.00
44131;BME280;29792;48.726;9.248;2023-04-23T02:01:50;96327.84;;;12.72;100.00
44131;BME280;29792;48.726;9.248;2023-04-23T02:04:16;96327.03;;;12.71;100.00
44131;BME280;29792;48.726;9.248;2023-04-23T02:06:44;96334.75;;;12.71;100.00
44131;BME280;29792;48.726;9.248;2023-04-23T02:09:11;96330.22;;;12.73;100.00
44131;BME280;29792;48.726;9.248;2023-04-23T02:11:36;96326.88;;;12.73;100.00
44131;BME280;29792;48.726;9.248;2023-04-23T02:14:02;96341.16;;;12.75;100.00
44131;BME280;29792;48.726;9.248;2023-04-23T02:16:27;96343.59;;;12.77;100.00
44131;BME280;29792;48.726;9.248;2023-04-23T02:18:53;96347.78;;;12.78;100.00
44131;BME280;29792;48.726;9.248;2023-04-23T02:21:20;96346.16;;;12.77;100.00
44131;BME280;29792;48.726;9.248;2023-04-23T02:23:45;96350.34;;;12.78;100.00
44131;BME280;29792;48.726;9.248;2023-04-23T02:26:10;96346.44;;;12.74;100.00
44131;BME280;29792;48.726;9.248;2023-04-23T02:28:36;96350.97;;;12.72;100.00
44131;BME280;29792;48.726;9.248;2023-04-23T02:31:01;96343.41;;;12.70;100.00
44131;BME280;29792;48.726;9.248;2023-04-23T02:33:26;96343.69;;;12.67;100.00
44131;BME280;29792;48.726;9.248;2023-04-23T02:35:52;96336.44;;;12.63;100.00
44131;BME280;29792;48.726;9.248;2023-04-23T02:38:17;96321.84;;;12.63;100.00
44131;BME280;29792;48.726;9.248;2023-04-23T02:40:42;96333.88;;;12.63;100.00
44131;BME280;29792;48.726;9.248;2023-04-23T02:43:07;96339.69;;;12.65;100.00
44131;BME280;29792;48.726;9.248;2023-04-23T02:45:33;96337.88;;;12.65;100.00
44131;BME280;29792;48.726;9.248;2023-04-23T02:47:58;96337.88;;;12.65;100.00
44131;BME280;29792;48.726;9.248;2023-04-23T02:50:23;96338.56;;;12.67;100.00
44131;BME280;29792;48.726;9.248;2023-04-23T02:52:48;96335.19;;;12.67;100.00
44131;BME280;29792;48.726;9.248;2023-04-23T02:55:14;96335.97;;;12.67;100.00
44131;BME280;29792;48.726;9.248;2023-04-23T02:57:40;96344.50;;;12.68;100.00
44131;BME280;29792;48.726;9.248;2023-04-23T03:00:06;96346.41;;;12.66;100.00
44131;BME280;29792;48.726;9.248;2023-04-23T03:02:31;96348.34;;;12.64;100.00
44131;BME280;29792;48.726;9.248;2023-04-23T03:04:56;96347.81;;;12.60;100.00
44131;BME280;29792;48.726;9.248;2023-04-23T03:07:22;96350.69;;;12.57;100.00
44131;BME280;29792;48.726;9.248;2023-04-23T03:09:48;96348.13;;;12.57;100.00
44131;BME280;29792;48.726;9.248;2023-04-23T03:12:13;96347.34;;;12.56;100.00
44131;BME280;29792;48.726;9.248;2023-04-23T03:14:38;96337.84;;;12.57;100.00
44131;BME280;29792;48.726;9.248;2023-04-23T03:17:03;96342.50;;;12.53;100.00
44131;BME280;29792;48.726;9.248;2023-04-23T03:19:29;96338.47;;;12.51;100.00
44131;BME280;29792;48.726;9.248;2023-04-23T03:21:54;96339.41;;;12.50;100.00
44131;BME280;29792;48.726;9.248;2023-04-23T03:24:20;96338.59;;;12.49;100.00
44131;BME280;29792;48.726;9.248;2023-04-23T03:26:46;96337.97;;;12.47;100.00
44131;BME280;29792;48.726;9.248;2023-04-23T03:29:11;96329.31;;;12.48;100.00
44131;BME280;29792;48.726;9.248;2023-04-23T03:31:36;96324.16;;;12.48;100.00
44131;BME280;29792;48.726;9.248;2023-04-23T03:34:01;96322.69;;;12.46;100.00
44131;BME280;29792;48.726;9.248;2023-04-23T03:36:27;96320.28;;;12.44;100.00
44131;BME280;29792;48.726;9.248;2023-04-23T03:38:53;96326.03;;;12.38;100.00
44131;BME280;29792;48.726;9.248;2023-04-23T03:41:18;96321.03;;;12.37;100.00
44131;BME280;29792;48.726;9.248;2023-04-23T03:43:43;96315.38;;;12.33;100.00
44131;BME280;29792;48.726;9.248;2023-04-23T03:46:09;96320.19;;;12.28;100.00
44131;BME280;29792;48.726;9.248;2023-04-23T03:48:34;96325.47;;;12.27;100.00
44131;BME280;29792;48.726;9.248;2023-04-23T03:50:59;96319.66;;;12.24;100.00
44131;BME280;29792;48.726;9.248;2023-04-23T03:53:25;96327.53;;;12.23;100.00
44131;BME280;29792;48.726;9.248;2023-04-23T03:55:50;96327.81;;;12.20;100.00
44131;BME280;29792;48.726;9.248;2023-04-23T03:58:15;96327.97;;;12.18;100.00
44131;BME280;29792;48.726;9.248;2023-04-23T04:00:41;96340.81;;;12.18;100.00
44131;BME280;29792;48.726;9.248;2023-04-23T04:03:06;96344.31;;;12.17;100.00
44131;BME280;29792;48.726;9.248;2023-04-23T04:05:33;96348.00;;;12.15;100.00
44131;BME280;29792;48.726;9.248;2023-04-23T04:07:58;96345.44;;;12.15;100.00
44131;BME280;29792;48.726;9.248;2023-04-23T04:10:23;96342.88;;;12.15;100.00
44131;BME280;29792;48.726;9.248;2023-04-23T04:12:48;96343.97;;;12.12;100.00
44131;BME280;29792;48.726;9.248;2023-04-23T04:15:14;96344.78;;;12.13;100.00
44131;BME280;29792;48.726;9.248;2023-04-23T04:17:40;96347.22;;;12.14;100.00
44131;BME280;29792;48.726;9.248;2023-04-23T04:20:06;96349.09;;;12.12;100.00
44131;BME280;29792;48.726;9.248;2023-04-23T04:22:35;96347.78;;;12.08;100.00
44131;BME280;29792;48.726;9.248;2023-04-23T04:25:00;96344.56;;;12.06;100.00
44131;BME280;29792;48.726;9.248;2023-04-23T04:27:25;96341.19;;;12.06;100.00
44131;BME280;29792;48.726;9.248;2023-04-23T04:29:51;96337.81;;;12.05;100.00
44131;BME280;29792;48.726;9.248;2023-04-23T04:32:16;96339.59;;;12.05;100.00
44131;BME280;29792;48.726;9.248;2023-04-23T04:34:41;96341.63;;;12.01;100.00
44131;BME280;29792;48.726;9.248;2023-04-23T04:37:07;96348.03;;;11.97;100.00
44131;BME280;29792;48.726;9.248;2023-04-23T04:39:34;96348.44;;;11.93;100.00
44131;BME280;29792;48.726;9.248;2023-04-23T04:41:59;96350.38;;;11.91;100.00
44131;BME280;29792;48.726;9.248;2023-04-23T04:44:26;96348.09;;;11.88;100.00
44131;BME280;29792;48.726;9.248;2023-04-23T04:46:52;96344.72;;;11.87;100.00
44131;BME280;29792;48.726;9.248;2023-04-23T04:49:17;96351.75;;;11.85;100.00
44131;BME280;29792;48.726;9.248;2023-04-23T04:51:43;96347.16;;;11.89;100.00
44131;BME280;29792;48.726;9.248;2023-04-23T04:54:09;96336.06;;;11.88;100.00
44131;BME280;29792;48.726;9.248;2023-04-23T04:56:34;96347.97;;;11.89;100.00
44131;BME280;29792;48.726;9.248;2023-04-23T04:59:00;96343.78;;;11.88;100.00
44131;BME280;29792;48.726;9.248;2023-04-23T05:01:27;96344.59;;;11.89;100.00
44131;BME280;29792;48.726;9.248;2023-04-23T05:03:52;96336.22;;;11.87;100.00
44131;BME280;29792;48.726;9.248;2023-04-23T05:06:18;96342.97;;;11.88;100.00
44131;BME280;29792;48.726;9.248;2023-04-23T05:08:43;96343.09;;;11.86;100.00
44131;BME280;29792;48.726;9.248;2023-04-23T05:11:15;96342.44;;;11.84;100.00
44131;BME280;29792;48.726;9.248;2023-04-23T05:13:42;96349.63;;;11.80;100.00
44131;BME280;29792;48.726;9.248;2023-04-23T05:16:08;96345.59;;;11.78;100.00
44131;BME280;29792;48.726;9.248;2023-04-23T05:18:33;96339.22;;;11.82;100.00
44131;BME280;29792;48.726;9.248;2023-04-23T05:20:59;96339.59;;;11.87;100.00
44131;BME280;29792;48.726;9.248;2023-04-23T05:23:24;96339.31;;;11.90;100.00
44131;BME280;29792;48.726;9.248;2023-04-23T05:25:50;96350.88;;;11.94;100.00
44131;BME280;29792;48.726;9.248;2023-04-23T05:28:17;96350.59;;;11.97;100.00
44131;BME280;29792;48.726;9.248;2023-04-23T05:30:42;96351.09;;;12.01;100.00
44131;BME280;29792;48.726;9.248;2023-04-23T05:33:08;96350.81;;;12.04;100.00
44131;BME280;29792;48.726;9.248;2023-04-23T05:35:33;96355.78;;;12.05;100.00
44131;BME280;29792;48.726;9.248;2023-04-23T05:37:58;96351.97;;;12.09;100.00
44131;BME280;29792;48.726;9.248;2023-04-23T05:40:24;96355.84;;;12.13;100.00
44131;BME280;29792;48.726;9.248;2023-04-23T05:42:49;96356.22;;;12.18;100.00
44131;BME280;29792;48.726;9.248;2023-04-23T05:45:14;96347.41;;;12.21;100.00
44131;BME280;29792;48.726;9.248;2023-04-23T05:47:40;96345.19;;;12.26;100.00
44131;BME280;29792;48.726;9.248;2023-04-23T05:50:05;96336.25;;;12.30;100.00
44131;BME280;29792;48.726;9.248;2023-04-23T05:52:31;96342.69;;;12.34;100.00
44131;BME280;29792;48.726;9.248;2023-04-23T05:54:57;96350.09;;;12.37;100.00
44131;BME280;29792;48.726;9.248;2023-04-23T05:57:22;96344.50;;;12.42;100.00
44131;BME280;29792;48.726;9.248;2023-04-23T05:59:48;96345.81;;;12.46;100.00
44131;BME280;29792;48.726;9.248;2023-04-23T06:02:13;96349.69;;;12.50;100.00
44131;BME280;29792;48.726;9.248;2023-04-23T06:04:38;96347.63;;;12.53;100.00
44131;BME280;29792;48.726;9.248;2023-04-23T06:07:05;96353.25;;;12.57;100.00
44131;BME280;29792;48.726;9.248;2023-04-23T06:09:30;96354.59;;;12.61;100.00
44131;BME280;29792;48.726;9.248;2023-04-23T06:11:55;96351.78;;;12.72;100.00
44131;BME280;29792;48.726;9.248;2023-04-23T06:14:20;96358.72;;;12.80;100.00
44131;BME280;29792;48.726;9.248;2023-04-23T06:16:46;96359.88;;;12.85;100.00
44131;BME280;29792;48.726;9.248;2023-04-23T06:19:11;96349.28;;;12.88;100.00
44131;BME280;29792;48.726;9.248;2023-04-23T06:21:36;96350.63;;;13.00;100.00
44131;BME280;29792;48.726;9.248;2023-04-23T06:24:01;96356.84;;;13.24;100.00
44131;BME280;29792;48.726;9.248;2023-04-23T06:26:27;96350.34;;;13.46;100.00
44131;BME280;29792;48.726;9.248;2023-04-23T06:28:52;96353.56;;;13.56;100.00
44131;BME280;29792;48.726;9.248;2023-04-23T06:31:17;96355.81;;;13.51;100.00
44131;BME280;29792;48.726;9.248;2023-04-23T06:33:43;96359.50;;;13.48;100.00
44131;BME280;29792;48.726;9.248;2023-04-23T06:36:08;96353.72;;;13.54;100.00
44131;BME280;29792;48.726;9.248;2023-04-23T06:38:35;96360.03;;;13.60;100.00
44131;BME280;29792;48.726;9.248;2023-04-23T06:41:00;96349.72;;;13.60;100.00
44131;BME280;29792;48.726;9.248;2023-04-23T06:43:26;96341.34;;;13.58;100.00
44131;BME280;29792;48.726;9.248;2023-04-23T06:45:51;96341.66;;;13.55;100.00
44131;BME280;29792;48.726;9.248;2023-04-23T06:48:16;96341.66;;;13.55;100.00
44131;BME280;29792;48.726;9.248;2023-04-23T06:50:43;96336.19;;;13.58;100.00
44131;BME280;29792;48.726;9.248;2023-04-23T06:53:08;96339.09;;;13.71;100.00
44131;BME280;29792;48.726;9.248;2023-04-23T06:55:34;96337.03;;;13.83;100.00
44131;BME280;29792;48.726;9.248;2023-04-23T06:57:59;96330.94;;;13.92;100.00
44131;BME280;29792;48.726;9.248;2023-04-23T07:00:25;96333.69;;;14.06;100.00
44131;BME280;29792;48.726;9.248;2023-04-23T07:02:50;96333.53;;;14.16;100.00
44131;BME280;29792;48.726;9.248;2023-04-23T07:05:16;96329.97;;;14.25;100.00
44131;BME280;29792;48.726;9.248;2023-04-23T07:07:42;96325.63;;;14.34;100.00
44131;BME280;29792;48.726;9.248;2023-04-23T07:10:09;96325.28;;;14.37;99.89
44131;BME280;29792;48.726;9.248;2023-04-23T07:12:36;96317.91;;;14.42;99.98
44131;BME280;29792;48.726;9.248;2023-04-23T07:15:02;96317.56;;;14.53;100.00
44131;BME280;29792;48.726;9.248;2023-04-23T07:17:27;96318.34;;;14.62;99.30
44131;BME280;29792;48.726;9.248;2023-04-23T07:19:52;96313.84;;;14.64;97.71
44131;BME280;29792;48.726;9.248;2023-04-23T07:22:18;96314.78;;;14.63;95.95
44131;BME280;29792;48.726;9.248;2023-04-23T07:24:43;96310.31;;;14.57;94.65
44131;BME280;29792;48.726;9.248;2023-04-23T07:27:08;96315.09;;;14.68;96.94
44131;BME280;29792;48.726;9.248;2023-04-23T07:29:34;96307.13;;;14.94;97.50
44131;BME280;29792;48.726;9.248;2023-04-23T07:31:59;96317.34;;;15.18;96.29
44131;BME280;29792;48.726;9.248;2023-04-23T07:34:24;96312.97;;;15.49;96.80
44131;BME280;29792;48.726;9.248;2023-04-23T07:36:49;96307.75;;;15.65;93.00
44131;BME280;29792;48.726;9.248;2023-04-23T07:39:16;96305.53;;;15.62;90.28
44131;BME280;29792;48.726;9.248;2023-04-23T07:41:41;96314.94;;;15.55;89.00
44131;BME280;29792;48.726;9.248;2023-04-23T07:44:06;96311.38;;;16.02;91.07
44131;BME280;29792;48.726;9.248;2023-04-23T07:46:31;96306.50;;;17.03;87.89
44131;BME280;29792;48.726;9.248;2023-04-23T07:48:57;96300.72;;;17.95;79.38
44131;BME280;29792;48.726;9.248;2023-04-23T07:51:22;96300.09;;;18.14;77.58
44131;BME280;29792;48.726;9.248;2023-04-23T07:53:51;96303.31;;;18.16;73.34
44131;BME280;29792;48.726;9.248;2023-04-23T07:56:18;96299.94;;;18.71;74.04
44131;BME280;29792;48.726;9.248;2023-04-23T07:58:43;96292.75;;;19.68;70.75
44131;BME280;29792;48.726;9.248;2023-04-23T08:01:09;96294.78;;;19.86;66.75
44131;BME280;29792;48.726;9.248;2023-04-23T08:03:34;96297.19;;;20.67;64.28
44131;BME280;29792;48.726;9.248;2023-04-23T08:05:59;96298.78;;;21.39;61.68
44131;BME280;29792;48.726;9.248;2023-04-23T08:08:24;96294.34;;;22.33;57.91
44131;BME280;29792;48.726;9.248;2023-04-23T08:10:50;96293.22;;;21.91;54.69
44131;BME280;29792;48.726;9.248;2023-04-23T08:13:15;96287.44;;;21.07;56.87
44131;BME280;29792;48.726;9.248;2023-04-23T08:15:40;96276.50;;;20.85;57.65
44131;BME280;29792;48.726;9.248;2023-04-23T08:18:05;96285.34;;;21.35;57.10
44131;BME280;29792;48.726;9.248;2023-04-23T08:20:31;96276.63;;;21.86;57.04
44131;BME280;29792;48.726;9.248;2023-04-23T08:22:56;96280.63;;;21.88;54.76
44131;BME280;29792;48.726;9.248;2023-04-23T08:25:21;96278.97;;;21.94;54.80
44131;BME280;29792;48.726;9.248;2023-04-23T08:27:47;96274.69;;;21.75;54.05
44131;BME280;29792;48.726;9.248;2023-04-23T08:30:12;96282.19;;;21.26;53.49
44131;BME280;29792;48.726;9.248;2023-04-23T08:32:38;96276.16;;;20.62;53.68
44131;BME280;29792;48.726;9.248;2023-04-23T08:35:04;96288.16;;;20.03;55.49
44131;BME280;29792;48.726;9.248;2023-04-23T08:37:29;96273.72;;;19.55;55.99
44131;BME280;29792;48.726;9.248;2023-04-23T08:39:55;96280.38;;;19.23;58.17
44131;BME280;29792;48.726;9.248;2023-04-23T08:42:36;96272.53;;;19.03;60.20
44131;BME280;29792;48.726;9.248;2023-04-23T08:45:03;96263.28;;;18.87;60.31
44131;BME280;29792;48.726;9.248;2023-04-23T08:47:31;96268.78;;;18.71;60.53
44131;BME280;29792;48.726;9.248;2023-04-23T08:49:57;96263.41;;;18.45;59.97
44131;BME280;29792;48.726;9.248;2023-04-23T08:52:25;96270.06;;;18.26;63.75
44131;BME280;29792;48.726;9.248;2023-04-23T08:54:59;96273.41;;;18.20;63.37
44131;BME280;29792;48.726;9.248;2023-04-23T08:57:25;96267.78;;;18.16;64.12
44131;BME280;29792;48.726;9.248;2023-04-23T08:59:51;96268.19;;;18.13;62.07
44131;BME280;29792;48.726;9.248;2023-04-23T09:02:16;96263.00;;;18.13;61.86
44131;BME280;29792;48.726;9.248;2023-04-23T09:04:44;96252.69;;;18.20;63.77
44131;BME280;29792;48.726;9.248;2023-04-23T09:07:09;96259.31;;;18.29;62.45
44131;BME280;29792;48.726;9.248;2023-04-23T09:09:38;96258.34;;;18.30;62.81
44131;BME280;29792;48.726;9.248;2023-04-23T09:12:05;96255.78;;;18.37;63.38
44131;BME280;29792;48.726;9.248;2023-04-23T09:14:31;96255.66;;;18.51;63.92
44131;BME280;29792;48.726;9.248;2023-04-23T09:16:57;96251.53;;;18.57;62.50
44131;BME280;29792;48.726;9.248;2023-04-23T09:19:24;96248.69;;;18.52;61.33
44131;BME280;29792;48.726;9.248;2023-04-23T09:21:52;96248.03;;;18.43;63.14
44131;BME280;29792;48.726;9.248;2023-04-23T09:24:17;96239.47;;;18.43;62.49
44131;BME280;29792;48.726;9.248;2023-04-23T09:26:44;96239.50;;;18.49;61.79
44131;BME280;29792;48.726;9.248;2023-04-23T09:29:15;96233.75;;;18.54;61.70
44131;BME280;29792;48.726;9.248;2023-04-23T09:31:54;96232.19;;;18.59;59.22
44131;BME280;29792;48.726;9.248;2023-04-23T09:34:24;96224.44;;;18.66;59.87
44131;BME280;29792;48.726;9.248;2023-04-23T09:36:50;96218.53;;;18.79;62.50
44131;BME280;29792;48.726;9.248;2023-04-23T09:39:23;96227.78;;;18.94;62.79
44131;BME280;29792;48.726;9.248;2023-04-23T09:41:50;96219.22;;;19.07;62.29
44131;BME280;29792;48.726;9.248;2023-04-23T09:44:17;96224.66;;;19.12;59.83
44131;BME280;29792;48.726;9.248;2023-04-23T09:46:43;96220.22;;;19.06;59.87
44131;BME280;29792;48.726;9.248;2023-04-23T09:49:09;96218.47;;;19.13;60.95
44131;BME280;29792;48.726;9.248;2023-04-23T09:51:39;96217.06;;;19.17;60.74
44131;BME280;29792;48.726;9.248;2023-04-23T09:54:21;96217.84;;;19.18;60.79
44131;BME280;29792;48.726;9.248;2023-04-23T09:56:52;96213.25;;;19.13;61.22
44131;BME280;29792;48.726;9.248;2023-04-23T09:59:22;96223.41;;;19.08;60.68
44131;BME280;29792;48.726;9.248;2023-04-23T10:01:48;96212.59;;;18.98;61.60
44131;BME280;29792;48.726;9.248;2023-04-23T10:04:21;96209.19;;;18.91;62.24
44131;BME280;29792;48.726;9.248;2023-04-23T10:06:54;96210.16;;;18.83;61.65
44131;BME280;29792;48.726;9.248;2023-04-23T10:09:23;96205.38;;;18.80;61.65
44131;BME280;29792;48.726;9.248;2023-04-23T10:11:56;96193.75;;;18.76;61.83
44131;BME280;29792;48.726;9.248;2023-04-23T10:14:23;96193.97;;;18.81;60.70
44131;BME280;29792;48.726;9.248;2023-04-23T10:16:51;96183.84;;;19.06;63.78
44131;BME280;29792;48.726;9.248;2023-04-23T10:19:18;96173.91;;;19.23;62.19
44131;BME280;29792;48.726;9.248;2023-04-23T10:21:48;96175.13;;;19.40;61.06
44131;BME280;29792;48.726;9.248;2023-04-23T10:24:16;96173.53;;;19.39;58.23
44131;BME280;29792;48.726;9.248;2023-04-23T10:26:45;96184.28;;;19.16;56.55
44131;BME280;29792;48.726;9.248;2023-04-23T10:29:13;96172.09;;;19.10;56.30
44131;BME280;29792;48.726;9.248;2023-04-23T10:31:41;96171.13;;;19.18;58.62
44131;BME280;29792;48.726;9.248;2023-04-23T10:34:08;96170.59;;;19.49;59.71
44131;BME280;29792;48.726;9.248;2023-04-23T10:36:38;96168.97;;;19.80;57.86
44131;BME280;29792;48.726;9.248;2023-04-23T10:39:03;96165.34;;;20.14;58.71
44131;BME280;29792;48.726;9.248;2023-04-23T10:41:39;96153.03;;;20.61;56.98
44131;BME280;29792;48.726;9.248;2023-04-23T10:44:10;96157.22;;;21.07;56.58
44131;BME280;29792;48.726;9.248;2023-04-23T10:46:35;96154.13;;;21.54;57.08
44131;BME280;29792;48.726;9.248;2023-04-23T10:49:10;96146.94;;;21.99;54.05
44131;BME280;29792;48.726;9.248;2023-04-23T10:51:41;96151.16;;;22.55;54.60
44131;BME280;29792;48.726;9.248;2023-04-23T10:54:10;96142.81;;;22.83;49.77
44131;BME280;29792;48.726;9.248;2023-04-23T10:56:38;96138.88;;;22.92;48.16
44131;BME280;29792;48.726;9.248;2023-04-23T10:59:06;96129.97;;;22.81;48.04
44131;BME280;29792;48.726;9.248;2023-04-23T11:01:32;96131.84;;;22.56;48.94
44131;BME280;29792;48.726;9.248;2023-04-23T11:03:57;96129.22;;;22.93;48.27
44131;BME280;29792;48.726;9.248;2023-04-23T11:06:49;96121.09;;;24.01;46.81
44131;BME280;29792;48.726;9.248;2023-04-23T11:11:59;96118.16;;;26.17;42.21
44131;BME280;29792;48.726;9.248;2023-04-23T11:17:01;96116.84;;;25.48;42.70
44131;BME280;29792;48.726;9.248;2023-04-23T11:19:26;96115.34;;;26.02;41.07
44131;BME280;29792;48.726;9.248;2023-04-23T11:22:02;96115.44;;;25.91;39.04
44131;BME280;29792;48.726;9.248;2023-04-23T11:24:32;96107.81;;;24.94;40.35
44131;BME280;29792;48.726;9.248;2023-04-23T11:26:58;96118.38;;;24.07;41.00
44131;BME280;29792;48.726;9.248;2023-04-23T11:29:25;96120.44;;;23.29;42.62
44131;BME280;29792;48.726;9.248;2023-04-23T11:31:55;96108.72;;;22.78;43.63
44131;BME280;29792;48.726;9.248;2023-04-23T11:34:21;96102.59;;;23.14;45.93
44131;BME280;29792;48.726;9.248;2023-04-23T11:36:47;96101.81;;;23.25;45.71
44131;BME280;29792;48.726;9.248;2023-04-23T11:39:15;96096.44;;;23.20;46.99
44131;BME280;29792;48.726;9.248;2023-04-23T11:41:43;96103.97;;;23.28;46.46
44131;BME280;29792;48.726;9.248;2023-04-23T11:44:10;96094.59;;;22.97;45.82
44131;BME280;29792;48.726;9.248;2023-04-23T11:46:36;96086.69;;;22.74;45.68
44131;BME280;29792;48.726;9.248;2023-04-23T11:49:02;96086.47;;;22.57;45.39
44131;BME280;29792;48.726;9.248;2023-04-23T11:51:28;96082.16;;;22.33;46.04
44131;BME280;29792;48.726;9.248;2023-04-23T11:53:53;96073.00;;;22.24;44.90
44131;BME280;29792;48.726;9.248;2023-04-23T11:56:18;96069.09;;;22.15;44.66
44131;BME280;29792;48.726;9.248;2023-04-23T11:58:57;96060.06;;;22.17;46.40
44131;BME280;29792;48.726;9.248;2023-04-23T12:01:23;96057.78;;;22.39;47.64
44131;BME280;29792;48.726;9.248;2023-04-23T12:03:48;96055.41;;;22.67;48.66
44131;BME280;29792;48.726;9.248;2023-04-23T12:06:16;96051.81;;;22.80;46.05
44131;BME280;29792;48.726;9.248;2023-04-23T12:08:45;96048.88;;;22.76;46.33
44131;BME280;29792;48.726;9.248;2023-04-23T12:11:11;96046.97;;;22.54;46.17
44131;BME280;29792;48.726;9.248;2023-04-23T12:13:38;96056.72;;;22.28;46.70
44131;BME280;29792;48.726;9.248;2023-04-23T12:16:04;96047.50;;;22.07;47.16
44131;BME280;29792;48.726;9.248;2023-04-23T12:18:32;96039.94;;;21.81;46.85
44131;BME280;29792;48.726;9.248;2023-04-23T12:21:08;96046.00;;;21.57;49.11
44131;BME280;29792;48.726;9.248;2023-04-23T12:23:38;96044.72;;;21.48;50.00
44131;BME280;29792;48.726;9.248;2023-04-23T12:26:09;96039.06;;;21.51;50.09
44131;BME280;29792;48.726;9.248;2023-04-23T12:28:44;96027.31;;;21.42;49.74
44131;BME280;29792;48.726;9.248;2023-04-23T12:31:10;96019.91;;;21.14;49.01
44131;BME280;29792;48.726;9.248;2023-04-23T12:33:35;96018.78;;;21.03;49.60
44131;BME280;29792;48.726;9.248;2023-04-23T12:36:00;96021.03;;;21.00;49.62
44131;BME280;29792;48.726;9.248;2023-04-23T12:38:27;96020.44;;;20.98;49.50
44131;BME280;29792;48.726;9.248;2023-04-23T12:40:57;96012.69;;;20.91;49.28
44131;BME280;29792;48.726;9.248;2023-04-23T12:43:24;96007.69;;;20.89;49.87
44131;BME280;29792;48.726;9.248;2023-04-23T12:45:50;96009.72;;;21.12;50.11
44131;BME280;29792;48.726;9.248;2023-04-23T12:48:16;96008.09;;;21.61;50.20
44131;BME280;29792;48.726;9.248;2023-04-23T12:50:41;95998.00;;;22.49;50.55
44131;BME280;29792;48.726;9.248;2023-04-23T12:53:07;95996.47;;;23.59;47.69
44131;BME280;29792;48.726;9.248;2023-04-23T12:55:32;95986.47;;;24.93;44.86